sensor_id;sensor_type;location;lat;lon;timestamp;temperature;humidity
65396;HTU21D;52004;45.136;39.010;2023-03-23T00:01:17;10.94;70.00
65396;HTU21D;52004;45.136;39.010;2023-03-23T00:03:45;10.93;70.03
65396;HTU21D;52004;45.136;39.010;2023-03-23T00:06:12;10.92;70.03
65396;HTU21D;52004;45.136;39.010;2023-03-23T00:08:43;10.89;70.06
65396;HTU21D;52004;45.136;39.010;2023-03-23T00:11:13;10.88;70.05
65396;HTU21D;52004;45.136;39.010;2023-03-23T00:13:42;10.90;70.03
65396;HTU21D;52004;45.136;39.010;2023-03-23T00:16:08;10.88;70.00
65396;HTU21D;52004;45.136;39.010;2023-03-23T00:18:43;10.87;70.03
65396;HTU21D;52004;45.136;39.010;2023-03-23T00:21:10;10.87;70.02
65396;HTU21D;52004;45.136;39.010;2023-03-23T00:23:35;10.85;69.97
65396;HTU21D;52004;45.136;39.010;2023-03-23T00:26:01;10.84;70.00
65396;HTU21D;52004;45.136;39.010;2023-03-23T00:28:27;10.82;69.99
65396;HTU21D;52004;45.136;39.010;2023-03-23T00:31:01;10.82;69.99
65396;HTU21D;52004;45.136;39.010;2023-03-23T00:33:27;10.82;69.96
65396;HTU21D;52004;45.136;39.010;2023-03-23T00:35:54;10.80;70.00
65396;HTU21D;52004;45.136;39.010;2023-03-23T00:38:23;10.78;70.00
65396;HTU21D;52004;45.136;39.010;2023-03-23T00:40:49;10.78;70.00
65396;HTU21D;52004;45.136;39.010;2023-03-23T00:43:16;10.75;70.04
65396;HTU21D;52004;45.136;39.010;2023-03-23T00:45:43;10.74;70.07
65396;HTU21D;52004;45.136;39.010;2023-03-23T00:48:10;10.73;70.10
65396;HTU21D;52004;45.136;39.010;2023-03-23T00:50:38;10.71;70.11
65396;HTU21D;52004;45.136;39.010;2023-03-23T00:53:04;10.71;70.13
65396;HTU21D;52004;45.136;39.010;2023-03-23T00:55:30;10.70;70.13
65396;HTU21D;52004;45.136;39.010;2023-03-23T00:57:56;10.69;70.16
65396;HTU21D;52004;45.136;39.010;2023-03-23T01:00:22;10.69;70.21
65396;HTU21D;52004;45.136;39.010;2023-03-23T01:02:48;10.70;70.21
65396;HTU21D;52004;45.136;39.010;2023-03-23T01:05:17;10.69;70.19
65396;HTU21D;52004;45.136;39.010;2023-03-23T01:07:44;10.70;70.17
65396;HTU21D;52004;45.136;39.010;2023-03-23T01:10:10;10.70;70.17
65396;HTU21D;52004;45.136;39.010;2023-03-23T01:12:44;10.69;70.16
65396;HTU21D;52004;45.136;39.010;2023-03-23T01:15:13;10.69;70.15
65396;HTU21D;52004;45.136;39.010;2023-03-23T01:17:40;10.68;70.17
65396;HTU21D;52004;45.136;39.010;2023-03-23T01:20:06;10.68;70.16
65396;HTU21D;52004;45.136;39.010;2023-03-23T01:22:32;10.66;70.14
65396;HTU21D;52004;45.136;39.010;2023-03-23T01:24:58;10.66;70.12
65396;HTU21D;52004;45.136;39.010;2023-03-23T01:27:24;10.66;70.10
65396;HTU21D;52004;45.136;39.010;2023-03-23T01:29:49;10.64;70.07
65396;HTU21D;52004;45.136;39.010;2023-03-23T01:32:16;10.62;70.07
65396;HTU21D;52004;45.136;39.010;2023-03-23T01:34:42;10.59;70.08
65396;HTU21D;52004;45.136;39.010;2023-03-23T01:37:08;10.57;70.10
65396;HTU21D;52004;45.136;39.010;2023-03-23T01:39:35;10.54;70.08
65396;HTU21D;52004;45.136;39.010;2023-03-23T01:42:02;10.52;70.08
65396;HTU21D;52004;45.136;39.010;2023-03-23T01:47:02;10.48;70.08
65396;HTU21D;52004;45.136;39.010;2023-03-23T01:49:29;10.44;70.08
65396;HTU21D;52004;45.136;39.010;2023-03-23T01:51:58;10.44;70.10
65396;HTU21D;52004;45.136;39.010;2023-03-23T01:54:26;10.40;70.12
65396;HTU21D;52004;45.136;39.010;2023-03-23T01:56:54;10.36;70.20
65396;HTU21D;52004;45.136;39.010;2023-03-23T01:59:20;10.35;70.25
65396;HTU21D;52004;45.136;39.010;2023-03-23T02:01:55;10.34;70.30
65396;HTU21D;52004;45.136;39.010;2023-03-23T02:04:23;10.34;70.33
65396;HTU21D;52004;45.136;39.010;2023-03-23T02:06:53;10.34;70.36
65396;HTU21D;52004;45.136;39.010;2023-03-23T02:09:24;10.33;70.41
65396;HTU21D;52004;45.136;39.010;2023-03-23T02:11:50;10.33;70.44
65396;HTU21D;52004;45.136;39.010;2023-03-23T02:14:17;10.34;70.47
65396;HTU21D;52004;45.136;39.010;2023-03-23T02:17:04;10.35;70.51
65396;HTU21D;52004;45.136;39.010;2023-03-23T02:25:04;10.30;70.66
65396;HTU21D;52004;45.136;39.010;2023-03-23T02:27:43;10.31;70.66
65396;HTU21D;52004;45.136;39.010;2023-03-23T02:35:39;10.33;70.68
65396;HTU21D;52004;45.136;39.010;2023-03-23T02:38:09;10.34;70.69
65396;HTU21D;52004;45.136;39.010;2023-03-23T02:40:41;10.35;70.68
65396;HTU21D;52004;45.136;39.010;2023-03-23T02:43:09;10.35;70.67
65396;HTU21D;52004;45.136;39.010;2023-03-23T02:45:36;10.36;70.65
65396;HTU21D;52004;45.136;39.010;2023-03-23T02:48:03;10.36;70.67
65396;HTU21D;52004;45.136;39.010;2023-03-23T02:50:29;10.38;70.66
65396;HTU21D;52004;45.136;39.010;2023-03-23T02:52:57;10.38;70.67
65396;HTU21D;52004;45.136;39.010;2023-03-23T02:55:25;10.40;70.64
65396;HTU21D;52004;45.136;39.010;2023-03-23T02:57:54;10.39;70.61
65396;HTU21D;52004;45.136;39.010;2023-03-23T03:00:21;10.40;70.60
65396;HTU21D;52004;45.136;39.010;2023-03-23T03:02:48;10.40;70.61
65396;HTU21D;52004;45.136;39.010;2023-03-23T03:08:07;10.41;70.64
65396;HTU21D;52004;45.136;39.010;2023-03-23T03:10:42;10.40;70.64
65396;HTU21D;52004;45.136;39.010;2023-03-23T03:18:32;10.43;70.58
65396;HTU21D;52004;45.136;39.010;2023-03-23T03:21:02;10.44;70.61
65396;HTU21D;52004;45.136;39.010;2023-03-23T03:23:32;10.44;70.61
65396;HTU21D;52004;45.136;39.010;2023-03-23T03:26:01;10.44;70.61
65396;HTU21D;52004;45.136;39.010;2023-03-23T03:28:44;10.45;70.62
65396;HTU21D;52004;45.136;39.010;2023-03-23T03:31:15;10.48;70.60
65396;HTU21D;52004;45.136;39.010;2023-03-23T03:33:42;10.51;70.57
65396;HTU21D;52004;45.136;39.010;2023-03-23T03:36:13;10.51;70.54
65396;HTU21D;52004;45.136;39.010;2023-03-23T03:38:41;10.52;70.50
65396;HTU21D;52004;45.136;39.010;2023-03-23T03:41:07;10.52;70.52
65396;HTU21D;52004;45.136;39.010;2023-03-23T03:43:32;10.51;70.52
65396;HTU21D;52004;45.136;39.010;2023-03-23T03:45:58;10.52;70.53
65396;HTU21D;52004;45.136;39.010;2023-03-23T03:48:24;10.52;70.53
65396;HTU21D;52004;45.136;39.010;2023-03-23T03:50:50;10.54;70.53
65396;HTU21D;52004;45.136;39.010;2023-03-23T03:53:17;10.53;70.51
65396;HTU21D;52004;45.136;39.010;2023-03-23T03:55:44;10.53;70.52
65396;HTU21D;52004;45.136;39.010;2023-03-23T03:58:15;10.53;70.53
65396;HTU21D;52004;45.136;39.010;2023-03-23T04:01:08;10.53;70.52
65396;HTU21D;52004;45.136;39.010;2023-03-23T04:03:38;10.53;70.53
65396;HTU21D;52004;45.136;39.010;2023-03-23T04:06:19;10.52;70.55
65396;HTU21D;52004;45.136;39.010;2023-03-23T04:08:45;10.52;70.58
65396;HTU21D;52004;45.136;39.010;2023-03-23T04:11:12;10.51;70.64
65396;HTU21D;52004;45.136;39.010;2023-03-23T04:13:39;10.50;70.64
65396;HTU21D;52004;45.136;39.010;2023-03-23T04:16:31;10.51;70.70
65396;HTU21D;52004;45.136;39.010;2023-03-23T04:19:00;10.52;70.74
65396;HTU21D;52004;45.136;39.010;2023-03-23T04:21:26;10.55;70.76
65396;HTU21D;52004;45.136;39.010;2023-03-23T04:23:58;10.56;70.74
65396;HTU21D;52004;45.136;39.010;2023-03-23T04:26:29;10.57;70.75
65396;HTU21D;52004;45.136;39.010;2023-03-23T04:29:00;10.59;70.74
65396;HTU21D;52004;45.136;39.010;2023-03-23T04:31:34;10.60;70.75
65396;HTU21D;52004;45.136;39.010;2023-03-23T04:34:24;10.63;70.77
65396;HTU21D;52004;45.136;39.010;2023-03-23T04:36:52;10.65;70.75
65396;HTU21D;52004;45.136;39.010;2023-03-23T04:39:22;10.67;70.77
65396;HTU21D;52004;45.136;39.010;2023-03-23T04:41:51;10.69;70.76
65396;HTU21D;52004;45.136;39.010;2023-03-23T04:44:39;10.72;70.77
65396;HTU21D;52004;45.136;39.010;2023-03-23T04:47:11;10.75;70.75
65396;HTU21D;52004;45.136;39.010;2023-03-23T04:49:45;10.78;70.77
65396;HTU21D;52004;45.136;39.010;2023-03-23T04:52:18;10.83;70.74
65396;HTU21D;52004;45.136;39.010;2023-03-23T04:54:51;10.86;70.72
65396;HTU21D;52004;45.136;39.010;2023-03-23T04:57:18;10.90;70.72
65396;HTU21D;52004;45.136;39.010;2023-03-23T04:59:59;10.94;70.72
65396;HTU21D;52004;45.136;39.010;2023-03-23T05:02:38;10.96;70.73
65396;HTU21D;52004;45.136;39.010;2023-03-23T05:05:06;10.99;70.72
65396;HTU21D;52004;45.136;39.010;2023-03-23T05:07:32;11.01;70.74
65396;HTU21D;52004;45.136;39.010;2023-03-23T05:09:58;11.07;70.74
65396;HTU21D;52004;45.136;39.010;2023-03-23T05:12:28;11.08;70.73
65396;HTU21D;52004;45.136;39.010;2023-03-23T05:15:01;11.13;70.74
65396;HTU21D;52004;45.136;39.010;2023-03-23T05:17:30;11.15;70.74
65396;HTU21D;52004;45.136;39.010;2023-03-23T05:20:00;11.19;70.73
65396;HTU21D;52004;45.136;39.010;2023-03-23T05:22:37;11.26;70.69
65396;HTU21D;52004;45.136;39.010;2023-03-23T05:25:05;11.27;70.69
65396;HTU21D;52004;45.136;39.010;2023-03-23T05:27:36;11.31;70.74
65396;HTU21D;52004;45.136;39.010;2023-03-23T05:30:12;11.34;70.71
65396;HTU21D;52004;45.136;39.010;2023-03-23T05:32:42;11.38;70.70
65396;HTU21D;52004;45.136;39.010;2023-03-23T05:35:33;11.40;70.71
65396;HTU21D;52004;45.136;39.010;2023-03-23T05:38:00;11.44;70.73
65396;HTU21D;52004;45.136;39.010;2023-03-23T05:40:28;11.48;70.72
65396;HTU21D;52004;45.136;39.010;2023-03-23T05:43:00;11.55;70.71
65396;HTU21D;52004;45.136;39.010;2023-03-23T05:45:40;11.62;70.67
65396;HTU21D;52004;45.136;39.010;2023-03-23T05:48:07;11.66;70.68
65396;HTU21D;52004;45.136;39.010;2023-03-23T05:51:00;11.72;70.69
65396;HTU21D;52004;45.136;39.010;2023-03-23T05:53:28;11.77;70.67
65396;HTU21D;52004;45.136;39.010;2023-03-23T05:56:00;11.82;70.63
65396;HTU21D;52004;45.136;39.010;2023-03-23T05:58:48;11.86;70.61
65396;HTU21D;52004;45.136;39.010;2023-03-23T06:01:14;11.91;70.67
65396;HTU21D;52004;45.136;39.010;2023-03-23T06:03:41;11.98;70.64
65396;HTU21D;52004;45.136;39.010;2023-03-23T06:06:17;12.05;70.63
65396;HTU21D;52004;45.136;39.010;2023-03-23T06:08:54;12.12;70.58
65396;HTU21D;52004;45.136;39.010;2023-03-23T06:11:33;12.16;70.52
65396;HTU21D;52004;45.136;39.010;2023-03-23T06:14:19;12.21;70.51
65396;HTU21D;52004;45.136;39.010;2023-03-23T06:16:47;12.27;70.52
65396;HTU21D;52004;45.136;39.010;2023-03-23T06:19:14;12.33;70.48
65396;HTU21D;52004;45.136;39.010;2023-03-23T06:21:49;12.37;70.44
65396;HTU21D;52004;45.136;39.010;2023-03-23T06:24:25;12.40;70.42
65396;HTU21D;52004;45.136;39.010;2023-03-23T06:26:51;12.44;70.44
65396;HTU21D;52004;45.136;39.010;2023-03-23T06:29:20;12.52;70.44
65396;HTU21D;52004;45.136;39.010;2023-03-23T06:31:53;12.57;70.45
65396;HTU21D;52004;45.136;39.010;2023-03-23T06:34:20;12.65;70.42
65396;HTU21D;52004;45.136;39.010;2023-03-23T06:37:05;12.72;70.42
65396;HTU21D;52004;45.136;39.010;2023-03-23T06:40:00;12.80;70.37
65396;HTU21D;52004;45.136;39.010;2023-03-23T06:42:34;12.88;70.38
65396;HTU21D;52004;45.136;39.010;2023-03-23T06:45:23;12.93;70.39
65396;HTU21D;52004;45.136;39.010;2023-03-23T06:47:57;13.01;70.36
65396;HTU21D;52004;45.136;39.010;2023-03-23T06:50:23;13.07;70.34
65396;HTU21D;52004;45.136;39.010;2023-03-23T06:52:50;13.14;70.32
65396;HTU21D;52004;45.136;39.010;2023-03-23T06:55:17;0.00;70.31
65396;HTU21D;52004;45.136;39.010;2023-03-23T06:57:43;13.25;70.32
65396;HTU21D;52004;45.136;39.010;2023-03-23T07:00:12;13.31;70.22
65396;HTU21D;52004;45.136;39.010;2023-03-23T07:02:40;13.37;70.19
65396;HTU21D;52004;45.136;39.010;2023-03-23T07:05:07;13.44;70.31
65396;HTU21D;52004;45.136;39.010;2023-03-23T07:07:38;13.51;70.32
65396;HTU21D;52004;45.136;39.010;2023-03-23T07:10:28;13.61;70.30
65396;HTU21D;52004;45.136;39.010;2023-03-23T07:12:54;13.69;70.20
65396;HTU21D;52004;45.136;39.010;2023-03-23T07:15:21;13.76;70.13
65396;HTU21D;52004;45.136;39.010;2023-03-23T07:17:49;13.80;70.05
65396;HTU21D;52004;45.136;39.010;2023-03-23T07:20:26;13.84;70.02
65396;HTU21D;52004;45.136;39.010;2023-03-23T07:22:53;13.89;70.07
65396;HTU21D;52004;45.136;39.010;2023-03-23T07:25:31;13.97;70.04
65396;HTU21D;52004;45.136;39.010;2023-03-23T07:28:00;14.03;70.03
65396;HTU21D;52004;45.136;39.010;2023-03-23T07:30:27;14.11;70.06
65396;HTU21D;52004;45.136;39.010;2023-03-23T07:32:55;14.20;70.15
65396;HTU21D;52004;45.136;39.010;2023-03-23T07:35:22;14.32;70.11
65396;HTU21D;52004;45.136;39.010;2023-03-23T07:38:01;14.42;70.01
65396;HTU21D;52004;45.136;39.010;2023-03-23T07:40:53;14.55;70.08
65396;HTU21D;52004;45.136;39.010;2023-03-23T07:43:19;14.67;69.99
65396;HTU21D;52004;45.136;39.010;2023-03-23T07:46:05;14.79;69.92
65396;HTU21D;52004;45.136;39.010;2023-03-23T07:48:41;14.88;69.76
65396;HTU21D;52004;45.136;39.010;2023-03-23T07:51:08;14.97;69.55
65396;HTU21D;52004;45.136;39.010;2023-03-23T07:53:35;15.02;69.68
65396;HTU21D;52004;45.136;39.010;2023-03-23T07:56:19;15.14;69.66
65396;HTU21D;52004;45.136;39.010;2023-03-23T07:59:10;15.30;69.67
65396;HTU21D;52004;45.136;39.010;2023-03-23T08:01:38;15.42;69.59
65396;HTU21D;52004;45.136;39.010;2023-03-23T08:04:23;15.57;69.40
65396;HTU21D;52004;45.136;39.010;2023-03-23T08:07:07;15.68;69.31
65396;HTU21D;52004;45.136;39.010;2023-03-23T08:09:49;15.77;69.28
65396;HTU21D;52004;45.136;39.010;2023-03-23T08:12:27;15.87;69.29
65396;HTU21D;52004;45.136;39.010;2023-03-23T08:15:13;16.01;69.39
65396;HTU21D;52004;45.136;39.010;2023-03-23T08:17:59;16.17;69.51
65396;HTU21D;52004;45.136;39.010;2023-03-23T08:20:45;16.37;69.07
65396;HTU21D;52004;45.136;39.010;2023-03-23T08:23:25;16.59;69.16
65396;HTU21D;52004;45.136;39.010;2023-03-23T08:26:10;16.82;68.75
65396;HTU21D;52004;45.136;39.010;2023-03-23T08:28:47;17.03;68.64
65396;HTU21D;52004;45.136;39.010;2023-03-23T08:31:37;0.00;68.34
65396;HTU21D;52004;45.136;39.010;2023-03-23T08:34:22;17.35;68.20
65396;HTU21D;52004;45.136;39.010;2023-03-23T08:37:03;17.47;68.20
65396;HTU21D;52004;45.136;39.010;2023-03-23T08:39:41;17.60;67.46
65396;HTU21D;52004;45.136;39.010;2023-03-23T08:42:08;17.66;67.47
65396;HTU21D;52004;45.136;39.010;2023-03-23T08:45:08;17.77;67.59
65396;HTU21D;52004;45.136;39.010;2023-03-23T08:48:06;17.87;67.46
65396;HTU21D;52004;45.136;39.010;2023-03-23T08:50:51;17.95;67.43
65396;HTU21D;52004;45.136;39.010;2023-03-23T08:53:43;18.05;66.95
65396;HTU21D;52004;45.136;39.010;2023-03-23T08:56:41;18.10;66.90
65396;HTU21D;52004;45.136;39.010;2023-03-23T08:59:07;18.17;67.08
65396;HTU21D;52004;45.136;39.010;2023-03-23T09:01:54;18.23;67.13
65396;HTU21D;52004;45.136;39.010;2023-03-23T09:04:25;18.29;66.87
65396;HTU21D;52004;45.136;39.010;2023-03-23T09:07:10;18.25;66.40
65396;HTU21D;52004;45.136;39.010;2023-03-23T09:09:38;18.13;66.33
65396;HTU21D;52004;45.136;39.010;2023-03-23T09:12:07;18.03;66.32
65396;HTU21D;52004;45.136;39.010;2023-03-23T09:14:34;17.93;66.21
65396;HTU21D;52004;45.136;39.010;2023-03-23T09:17:01;17.83;66.17
65396;HTU21D;52004;45.136;39.010;2023-03-23T09:19:29;17.78;66.28
65396;HTU21D;52004;45.136;39.010;2023-03-23T09:21:55;17.69;66.16
65396;HTU21D;52004;45.136;39.010;2023-03-23T09:24:21;17.59;66.02
65396;HTU21D;52004;45.136;39.010;2023-03-23T09:26:47;17.48;66.04
65396;HTU21D;52004;45.136;39.010;2023-03-23T09:29:13;17.38;65.99
65396;HTU21D;52004;45.136;39.010;2023-03-23T09:31:39;17.33;66.14
65396;HTU21D;52004;45.136;39.010;2023-03-23T09:34:08;17.32;66.25
65396;HTU21D;52004;45.136;39.010;2023-03-23T09:36:37;17.34;66.27
65396;HTU21D;52004;45.136;39.010;2023-03-23T09:39:07;17.34;66.24
65396;HTU21D;52004;45.136;39.010;2023-03-23T09:44:42;17.31;65.99
65396;HTU21D;52004;45.136;39.010;2023-03-23T09:47:20;17.25;65.97
65396;HTU21D;52004;45.136;39.010;2023-03-23T09:49:56;17.19;65.94
65396;HTU21D;52004;45.136;39.010;2023-03-23T09:52:34;17.20;66.13
65396;HTU21D;52004;45.136;39.010;2023-03-23T09:55:01;17.24;66.26
65396;HTU21D;52004;45.136;39.010;2023-03-23T10:00:17;17.38;66.23
65396;HTU21D;52004;45.136;39.010;2023-03-23T10:02:48;17.41;66.12
65396;HTU21D;52004;45.136;39.010;2023-03-23T10:05:23;17.45;65.93
65396;HTU21D;52004;45.136;39.010;2023-03-23T10:07:51;17.44;65.82
65396;HTU21D;52004;45.136;39.010;2023-03-23T10:10:17;17.44;65.77
65396;HTU21D;52004;45.136;39.010;2023-03-23T10:12:55;17.40;65.76
65396;HTU21D;52004;45.136;39.010;2023-03-23T10:15:29;17.37;65.56
65396;HTU21D;52004;45.136;39.010;2023-03-23T10:17:58;17.33;65.59
65396;HTU21D;52004;45.136;39.010;2023-03-23T10:20:32;17.32;65.70
65396;HTU21D;52004;45.136;39.010;2023-03-23T10:23:20;17.32;65.76
65396;HTU21D;52004;45.136;39.010;2023-03-23T10:25:52;17.33;65.73
65396;HTU21D;52004;45.136;39.010;2023-03-23T10:28:32;17.31;65.68
65396;HTU21D;52004;45.136;39.010;2023-03-23T10:31:00;17.30;65.66
65396;HTU21D;52004;45.136;39.010;2023-03-23T10:38:36;17.28;65.73
65396;HTU21D;52004;45.136;39.010;2023-03-23T10:41:09;17.26;65.74
65396;HTU21D;52004;45.136;39.010;2023-03-23T10:43:37;17.26;65.65
65396;HTU21D;52004;45.136;39.010;2023-03-23T10:48:56;17.23;65.66
65396;HTU21D;52004;45.136;39.010;2023-03-23T10:51:27;17.22;65.71
65396;HTU21D;52004;45.136;39.010;2023-03-23T10:53:57;17.22;65.71
65396;HTU21D;52004;45.136;39.010;2023-03-23T10:58:49;17.22;65.69
65396;HTU21D;52004;45.136;39.010;2023-03-23T11:01:18;17.23;65.73
65396;HTU21D;52004;45.136;39.010;2023-03-23T11:03:46;17.25;65.59
65396;HTU21D;52004;45.136;39.010;2023-03-23T11:06:21;17.24;65.71
65396;HTU21D;52004;45.136;39.010;2023-03-23T11:08:52;17.29;65.75
65396;HTU21D;52004;45.136;39.010;2023-03-23T11:11:19;17.32;65.69
65396;HTU21D;52004;45.136;39.010;2023-03-23T11:13:49;17.34;65.66
65396;HTU21D;52004;45.136;39.010;2023-03-23T11:16:51;17.36;65.56
65396;HTU21D;52004;45.136;39.010;2023-03-23T11:19:23;17.38;65.61
65396;HTU21D;52004;45.136;39.010;2023-03-23T11:21:50;17.40;65.60
65396;HTU21D;52004;45.136;39.010;2023-03-23T11:24:17;17.43;65.64
65396;HTU21D;52004;45.136;39.010;2023-03-23T11:26:43;17.47;65.67
65396;HTU21D;52004;45.136;39.010;2023-03-23T11:29:17;17.51;65.64
65396;HTU21D;52004;45.136;39.010;2023-03-23T11:31:44;17.55;65.66
65396;HTU21D;52004;45.136;39.010;2023-03-23T11:36:41;17.63;65.62
65396;HTU21D;52004;45.136;39.010;2023-03-23T11:39:21;17.65;65.56
65396;HTU21D;52004;45.136;39.010;2023-03-23T11:41:47;17.68;65.55
65396;HTU21D;52004;45.136;39.010;2023-03-23T11:44:14;17.69;65.50
65396;HTU21D;52004;45.136;39.010;2023-03-23T11:49:25;17.69;65.49
65396;HTU21D;52004;45.136;39.010;2023-03-23T11:51:55;17.69;65.40
65396;HTU21D;52004;45.136;39.010;2023-03-23T11:54:30;17.68;65.38
65396;HTU21D;52004;45.136;39.010;2023-03-23T11:56:57;17.68;65.33
65396;HTU21D;52004;45.136;39.010;2023-03-23T11:59:31;17.66;65.27
65396;HTU21D;52004;45.136;39.010;2023-03-23T12:02:20;17.63;65.21
65396;HTU21D;52004;45.136;39.010;2023-03-23T12:10:30;0.00;65.20
65396;HTU21D;52004;45.136;39.010;2023-03-23T12:15:49;17.44;65.14
65396;HTU21D;52004;45.136;39.010;2023-03-23T12:18:37;17.41;65.28
65396;HTU21D;52004;45.136;39.010;2023-03-23T12:23:42;17.39;65.31
65396;HTU21D;52004;45.136;39.010;2023-03-23T12:29:24;17.39;65.31
65396;HTU21D;52004;45.136;39.010;2023-03-23T12:45:21;17.29;65.24
65396;HTU21D;52004;45.136;39.010;2023-03-23T12:47:54;17.25;65.36
65396;HTU21D;52004;45.136;39.010;2023-03-23T12:53:11;17.24;65.41
65396;HTU21D;52004;45.136;39.010;2023-03-23T12:55:52;17.23;65.47
65396;HTU21D;52004;45.136;39.010;2023-03-23T12:58:26;17.24;65.46
65396;HTU21D;52004;45.136;39.010;2023-03-23T13:00:57;17.24;65.50
65396;HTU21D;52004;45.136;39.010;2023-03-23T13:08:44;17.26;65.49
65396;HTU21D;52004;45.136;39.010;2023-03-23T13:11:10;17.26;65.49
65396;HTU21D;52004;45.136;39.010;2023-03-23T13:13:44;17.28;65.50
65396;HTU21D;52004;45.136;39.010;2023-03-23T13:16:20;17.26;65.47
65396;HTU21D;52004;45.136;39.010;2023-03-23T13:19:01;17.26;65.46
65396;HTU21D;52004;45.136;39.010;2023-03-23T13:21:31;0.00;65.45
65396;HTU21D;52004;45.136;39.010;2023-03-23T13:23:59;17.23;65.46
65396;HTU21D;52004;45.136;39.010;2023-03-23T13:26:26;17.23;65.47
65396;HTU21D;52004;45.136;39.010;2023-03-23T13:29:06;17.22;65.47
65396;HTU21D;52004;45.136;39.010;2023-03-23T13:31:35;17.20;65.48
65396;HTU21D;52004;45.136;39.010;2023-03-23T13:34:18;17.18;65.52
65396;HTU21D;52004;45.136;39.010;2023-03-23T13:36:52;17.19;65.53
65396;HTU21D;52004;45.136;39.010;2023-03-23T13:39:27;17.17;65.49
65396;HTU21D;52004;45.136;39.010;2023-03-23T13:44:40;17.13;65.55
65396;HTU21D;52004;45.136;39.010;2023-03-23T13:49:57;17.09;65.62
65396;HTU21D;52004;45.136;39.010;2023-03-23T13:52:35;17.06;65.65
65396;HTU21D;52004;45.136;39.010;2023-03-23T13:57:57;17.05;65.72
65396;HTU21D;52004;45.136;39.010;2023-03-23T14:03:13;17.05;65.78
65396;HTU21D;52004;45.136;39.010;2023-03-23T14:05:39;17.07;65.79
65396;HTU21D;52004;45.136;39.010;2023-03-23T14:10:40;0.00;65.85
65396;HTU21D;52004;45.136;39.010;2023-03-23T14:13:10;17.13;65.85
65396;HTU21D;52004;45.136;39.010;2023-03-23T14:15:40;17.17;65.84
65396;HTU21D;52004;45.136;39.010;2023-03-23T14:18:11;17.19;65.85
65396;HTU21D;52004;45.136;39.010;2023-03-23T14:20:38;17.22;65.83
65396;HTU21D;52004;45.136;39.010;2023-03-23T14:23:05;17.23;65.81
65396;HTU21D;52004;45.136;39.010;2023-03-23T14:25:31;17.24;65.78
65396;HTU21D;52004;45.136;39.010;2023-03-23T14:27:57;17.26;65.75
65396;HTU21D;52004;45.136;39.010;2023-03-23T14:30:24;17.28;65.70
65396;HTU21D;52004;45.136;39.010;2023-03-23T14:32:51;17.26;65.70
65396;HTU21D;52004;45.136;39.010;2023-03-23T14:35:26;17.24;65.72
65396;HTU21D;52004;45.136;39.010;2023-03-23T14:37:57;17.25;65.73
65396;HTU21D;52004;45.136;39.010;2023-03-23T14:40:25;17.25;65.72
65396;HTU21D;52004;45.136;39.010;2023-03-23T14:42:51;17.24;65.69
65396;HTU21D;52004;45.136;39.010;2023-03-23T14:45:20;17.22;65.72
65396;HTU21D;52004;45.136;39.010;2023-03-23T14:47:51;17.23;65.69
65396;HTU21D;52004;45.136;39.010;2023-03-23T14:50:25;17.20;65.70
65396;HTU21D;52004;45.136;39.010;2023-03-23T14:56:44;17.15;65.68
65396;HTU21D;52004;45.136;39.010;2023-03-23T14:59:10;17.13;65.67
65396;HTU21D;52004;45.136;39.010;2023-03-23T15:01:36;17.10;65.66
65396;HTU21D;52004;45.136;39.010;2023-03-23T15:04:22;17.08;65.63
65396;HTU21D;52004;45.136;39.010;2023-03-23T15:06:50;17.05;65.63
65396;HTU21D;52004;45.136;39.010;2023-03-23T15:09:18;17.03;65.62
65396;HTU21D;52004;45.136;39.010;2023-03-23T15:11:56;16.98;65.63
65396;HTU21D;52004;45.136;39.010;2023-03-23T15:14:27;16.94;65.62
65396;HTU21D;52004;45.136;39.010;2023-03-23T15:16:54;16.91;65.60
65396;HTU21D;52004;45.136;39.010;2023-03-23T15:19:23;16.85;65.60
65396;HTU21D;52004;45.136;39.010;2023-03-23T15:21:53;16.80;65.61
65396;HTU21D;52004;45.136;39.010;2023-03-23T15:24:26;0.00;65.61
65396;HTU21D;52004;45.136;39.010;2023-03-23T15:26:52;16.70;65.62
65396;HTU21D;52004;45.136;39.010;2023-03-23T15:29:19;16.64;65.62
65396;HTU21D;52004;45.136;39.010;2023-03-23T15:31:50;16.59;65.64
65396;HTU21D;52004;45.136;39.010;2023-03-23T15:34:30;0.00;65.65
65396;HTU21D;52004;45.136;39.010;2023-03-23T15:37:06;16.47;65.70
65396;HTU21D;52004;45.136;39.010;2023-03-23T15:39:40;16.40;65.73
65396;HTU21D;52004;45.136;39.010;2023-03-23T15:42:06;16.33;65.75
65396;HTU21D;52004;45.136;39.010;2023-03-23T15:44:35;16.28;65.78
65396;HTU21D;52004;45.136;39.010;2023-03-23T15:47:02;16.21;65.81
65396;HTU21D;52004;45.136;39.010;2023-03-23T15:49:28;16.16;65.85
65396;HTU21D;52004;45.136;39.010;2023-03-23T15:51:55;16.11;65.91
65396;HTU21D;52004;45.136;39.010;2023-03-23T15:54:21;16.06;65.93
65396;HTU21D;52004;45.136;39.010;2023-03-23T15:56:47;16.04;65.95
65396;HTU21D;52004;45.136;39.010;2023-03-23T15:59:18;16.02;65.95
65396;HTU21D;52004;45.136;39.010;2023-03-23T16:01:47;15.97;65.96
65396;HTU21D;52004;45.136;39.010;2023-03-23T16:04:15;15.96;65.98
65396;HTU21D;52004;45.136;39.010;2023-03-23T16:06:41;15.92;66.00
65396;HTU21D;52004;45.136;39.010;2023-03-23T16:09:11;15.90;66.02
65396;HTU21D;52004;45.136;39.010;2023-03-23T16:11:38;15.87;66.06
65396;HTU21D;52004;45.136;39.010;2023-03-23T16:14:28;15.84;66.10
65396;HTU21D;52004;45.136;39.010;2023-03-23T16:16:54;15.83;66.14
65396;HTU21D;52004;45.136;39.010;2023-03-23T16:19:20;0.00;66.15
65396;HTU21D;52004;45.136;39.010;2023-03-23T16:21:48;15.81;66.15
65396;HTU21D;52004;45.136;39.010;2023-03-23T16:24:14;15.78;66.20
65396;HTU21D;52004;45.136;39.010;2023-03-23T16:26:40;15.77;66.20
65396;HTU21D;52004;45.136;39.010;2023-03-23T16:29:13;15.75;66.21
65396;HTU21D;52004;45.136;39.010;2023-03-23T16:31:39;15.74;66.20
65396;HTU21D;52004;45.136;39.010;2023-03-23T16:34:05;15.73;66.21
65396;HTU21D;52004;45.136;39.010;2023-03-23T16:36:56;15.72;66.21
65396;HTU21D;52004;45.136;39.010;2023-03-23T16:39:22;15.70;66.17
65396;HTU21D;52004;45.136;39.010;2023-03-23T16:45:16;15.63;66.19
65396;HTU21D;52004;45.136;39.010;2023-03-23T16:47:42;15.63;66.19
65396;HTU21D;52004;45.136;39.010;2023-03-23T16:50:09;15.60;66.21
65396;HTU21D;52004;45.136;39.010;2023-03-23T16:52:39;15.59;66.24
65396;HTU21D;52004;45.136;39.010;2023-03-23T16:55:05;15.57;66.24
65396;HTU21D;52004;45.136;39.010;2023-03-23T16:57:32;15.56;66.25
65396;HTU21D;52004;45.136;39.010;2023-03-23T16:59:59;15.54;66.27
65396;HTU21D;52004;45.136;39.010;2023-03-23T17:02:25;15.52;66.32
65396;HTU21D;52004;45.136;39.010;2023-03-23T17:04:51;15.49;66.30
65396;HTU21D;52004;45.136;39.010;2023-03-23T17:07:17;15.48;66.29
65396;HTU21D;52004;45.136;39.010;2023-03-23T17:09:43;15.46;66.28